Time;durP1;ratioP1;P1;durP2;ratioP2;P2;SDS_P1;SDS_P2;PMS_P1;PMS_P2;Temp;Humidity;BMP_temperature;BMP_pressure;BME280_temperature;BME280_humidity;BME280_pressure;Samples;Min_cycle;Max_cycle;Signal;HPM_P1;HPM_P2
2021/04/29 00:01:04;;;;;;;16.73;12.95;;;10.80;59.80;;;;;;5076520;28;20521;-72
2021/04/29 00:03:30;;;;;;;20.30;15.57;;;10.80;60.10;;;;;;5076762;28;20031;-72
2021/04/29 00:05:55;;;;;;;17.15;12.38;;;10.80;60.10;;;;;;5077041;28;20028;-72
2021/04/29 00:08:21;;;;;;;17.40;13.48;;;10.70;60.10;;;;;;5076818;28;20027;-72
2021/04/29 00:10:47;;;;;;;19.63;13.48;;;10.70;60.40;;;;;;5077442;28;20467;-72
2021/04/29 00:13:13;;;;;;;22.02;15.75;;;10.70;60.50;;;;;;5075861;28;20096;-73
2021/04/29 00:15:39;;;;;;;19.45;15.20;;;10.70;60.40;;;;;;5076020;28;20098;-72
2021/04/29 00:18:05;;;;;;;17.48;13.43;;;10.70;60.30;;;;;;5077312;28;20024;-72
2021/04/29 00:20:30;;;;;;;17.75;13.25;;;10.60;60.20;;;;;;5076983;28;20027;-72
2021/04/29 00:22:56;;;;;;;19.33;14.80;;;10.50;60.70;;;;;;5075444;28;20020;-72
2021/04/29 00:25:22;;;;;;;18.27;13.50;;;10.50;60.60;;;;;;5077324;28;20033;-72
2021/04/29 00:27:48;;;;;;;20.40;15.45;;;10.50;60.50;;;;;;5075921;28;20154;-72
2021/04/29 00:30:14;;;;;;;20.02;15.27;;;10.50;60.80;;;;;;5076530;28;20028;-72
2021/04/29 00:32:40;;;;;;;21.27;14.95;;;10.40;60.60;;;;;;5076798;28;20044;-72
2021/04/29 00:35:06;;;;;;;17.80;13.38;;;10.40;60.80;;;;;;5077213;28;20083;-72
2021/04/29 00:37:32;;;;;;;21.52;14.38;;;10.30;60.80;;;;;;5076973;28;20040;-72
2021/04/29 00:39:58;;;;;;;20.05;14.15;;;10.30;61.00;;;;;;5076645;28;20555;-72
2021/04/29 00:42:24;;;;;;;19.00;14.50;;;10.30;61.00;;;;;;5076704;28;20052;-72
2021/04/29 00:44:50;;;;;;;18.67;14.18;;;10.20;61.10;;;;;;5077041;28;20032;-72
2021/04/29 00:47:17;;;;;;;21.10;15.75;;;10.20;61.10;;;;;;5077198;28;20059;-72
2021/04/29 00:49:43;;;;;;;19.27;13.85;;;10.20;61.30;;;;;;5076689;28;20037;-72
2021/04/29 00:52:09;;;;;;;18.15;13.68;;;10.20;61.60;;;;;;5076827;28;20031;-72
2021/04/29 00:54:34;;;;;;;19.05;13.88;;;10.20;61.60;;;;;;5075931;28;20041;-72
2021/04/29 00:57:00;;;;;;;19.50;14.68;;;10.10;61.60;;;;;;5077068;28;20099;-72
2021/04/29 00:59:26;;;;;;;21.38;15.60;;;10.20;61.70;;;;;;5077260;28;20037;-72
2021/04/29 01:01:57;;;;;;;17.48;13.82;;;10.10;61.80;;;;;;5080035;28;20040;-72
2021/04/29 01:04:28;;;;;;;20.00;14.18;;;10.20;61.90;;;;;;5080533;28;20383;-72
2021/04/29 01:07:06;;;;;;;22.05;16.05;;;10.20;62.00;;;;;;5079930;28;20540;-72
2021/04/29 01:09:49;;;;;;;22.13;16.38;;;10.20;61.80;;;;;;5078862;28;20024;-72
2021/04/29 01:12:32;;;;;;;20.05;14.30;;;10.20;61.70;;;;;;5078328;28;20035;-73
2021/04/29 01:14:59;;;;;;;21.02;15.05;;;10.10;61.60;;;;;;5077586;28;20056;-72
2021/04/29 01:17:25;;;;;;;21.08;14.77;;;10.20;61.80;;;;;;5079716;28;20399;-72
2021/04/29 01:19:56;;;;;;;24.60;16.83;;;10.10;61.70;;;;;;5079227;28;20440;-73
2021/04/29 01:22:22;;;;;;;19.60;14.93;;;10.10;62.00;;;;;;5066787;28;20405;-72
2021/04/29 01:25:06;;;;;;;20.05;14.38;;;10.10;62.00;;;;;;5077427;28;20111;-72
2021/04/29 01:27:33;;;;;;;22.88;15.68;;;10.00;61.90;;;;;;5073784;28;20040;-72
2021/04/29 01:30:06;;;;;;;21.90;16.48;;;10.00;62.00;;;;;;5067356;28;20095;-72
2021/04/29 01:32:33;;;;;;;20.65;15.00;;;10.00;62.00;;;;;;5079828;28;20398;-72
2021/04/29 01:34:59;;;;;;;22.30;15.77;;;9.90;62.10;;;;;;5079756;28;20039;-72
2021/04/29 01:37:25;;;;;;;23.55;15.93;;;9.90;62.20;;;;;;5079730;28;20048;-72
2021/04/29 01:39:52;;;;;;;23.75;16.10;;;9.90;62.20;;;;;;5079970;28;20016;-72
2021/04/29 01:42:18;;;;;;;24.38;15.55;;;9.80;62.10;;;;;;5080338;28;20028;-72
2021/04/29 01:44:44;;;;;;;23.95;15.88;;;9.70;62.30;;;;;;5079855;28;20025;-72
2021/04/29 01:47:10;;;;;;;21.92;16.50;;;9.70;62.50;;;;;;5080364;28;20028;-72
2021/04/29 01:49:36;;;;;;;22.02;16.23;;;9.70;62.50;;;;;;5080152;28;20086;-72
2021/04/29 01:52:02;;;;;;;24.45;17.92;;;9.70;62.50;;;;;;5080073;28;20035;-72
2021/04/29 01:54:28;;;;;;;22.90;15.93;;;9.70;62.70;;;;;;5079001;28;20021;-72
2021/04/29 01:56:54;;;;;;;24.10;16.40;;;9.60;62.80;;;;;;5080114;28;20424;-73
2021/04/29 01:59:20;;;;;;;20.98;15.45;;;9.60;62.80;;;;;;5079437;28;20445;-72
2021/04/29 02:01:46;;;;;;;22.60;17.23;;;9.60;63.10;;;;;;5078607;28;20539;-73
2021/04/29 02:04:12;;;;;;;20.80;15.70;;;9.60;63.00;;;;;;5079703;28;20028;-72
2021/04/29 02:06:40;;;;;;;21.77;16.15;;;9.50;63.20;;;;;;5079647;28;20437;-73
2021/04/29 02:09:07;;;;;;;22.60;14.68;;;9.50;63.10;;;;;;5079736;28;20080;-72
2021/04/29 02:11:37;;;;;;;20.15;14.77;;;9.60;63.40;;;;;;5073420;28;20098;-72
2021/04/29 02:14:06;;;;;;;25.17;16.63;;;9.50;63.40;;;;;;5079358;28;20025;-72
2021/04/29 02:16:44;;;;;;;22.17;15.63;;;9.60;63.60;;;;;;5079761;28;20494;-72
2021/04/29 02:19:12;;;;;;;20.60;15.63;;;9.60;63.40;;;;;;5079585;28;20028;-72
2021/04/29 02:21:42;;;;;;;22.60;16.42;;;9.70;63.50;;;;;;5079590;28;20025;-72
2021/04/29 02:24:11;;;;;;;25.10;16.08;;;9.70;63.40;;;;;;5079081;28;20016;-72
2021/04/29 02:26:37;;;;;;;23.08;17.23;;;9.70;63.40;;;;;;5077005;28;20056;-73
2021/04/29 02:29:07;;;;;;;23.08;16.05;;;9.60;63.30;;;;;;5078701;28;20029;-72
2021/04/29 02:31:37;;;;;;;24.45;16.40;;;9.50;63.20;;;;;;5078294;28;20032;-72
2021/04/29 02:34:04;;;;;;;23.17;16.38;;;9.50;63.30;;;;;;5078712;28;20067;-72
2021/04/29 02:36:31;;;;;;;23.35;16.90;;;9.50;63.20;;;;;;5078126;28;20067;-73
2021/04/29 02:38:58;;;;;;;20.77;15.68;;;9.40;63.30;;;;;;5078000;28;20040;-72
2021/04/29 02:41:25;;;;;;;23.88;16.02;;;9.30;63.70;;;;;;5077627;28;20020;-72
2021/04/29 02:43:51;;;;;;;23.25;17.05;;;9.30;63.90;;;;;;5084107;28;20032;-73
2021/04/29 02:46:18;;;;;;;24.13;16.48;;;9.30;64.00;;;;;;5078902;28;20032;-72
2021/04/29 02:48:47;;;;;;;24.10;16.20;;;9.40;64.10;;;;;;5079046;28;20025;-72
2021/04/29 02:51:14;;;;;;;24.67;15.95;;;9.30;64.00;;;;;;5078482;28;20028;-72
2021/04/29 02:53:42;;;;;;;24.98;17.23;;;9.30;64.10;;;;;;5076736;28;20024;-72
2021/04/29 02:56:08;;;;;;;23.33;17.25;;;9.30;64.20;;;;;;5078258;28;20434;-72
2021/04/29 02:58:50;;;;;;;25.48;18.05;;;9.30;64.20;;;;;;5078496;28;20028;-72
2021/04/29 03:01:16;;;;;;;23.75;16.38;;;9.30;64.20;;;;;;5078888;28;20021;-72
2021/04/29 03:03:43;;;;;;;23.30;16.75;;;9.30;64.00;;;;;;5078312;28;20090;-72
2021/04/29 03:06:10;;;;;;;26.23;18.52;;;9.30;64.20;;;;;;5078495;28;20051;-72
2021/04/29 03:08:35;;;;;;;26.17;18.13;;;9.20;64.80;;;;;;5078273;28;20024;-72
2021/04/29 03:11:03;;;;;;;27.80;19.40;;;9.20;64.40;;;;;;5076938;28;20120;-72
2021/04/29 03:13:29;;;;;;;22.13;16.95;;;9.20;64.50;;;;;;5077536;28;20017;-72
2021/04/29 03:15:55;;;;;;;27.80;19.30;;;9.10;64.30;;;;;;5076789;28;20514;-72
2021/04/29 03:18:21;;;;;;;25.20;18.27;;;9.10;64.60;;;;;;5076973;28;20028;-72
2021/04/29 03:20:46;;;;;;;21.98;16.10;;;9.10;64.70;;;;;;5078275;28;20095;-72
2021/04/29 03:23:12;;;;;;;23.98;17.05;;;9.10;64.80;;;;;;5076970;28;20019;-72
2021/04/29 03:25:38;;;;;;;22.27;16.77;;;9.00;64.80;;;;;;5076946;28;20020;-72
2021/04/29 03:28:04;;;;;;;26.25;18.02;;;9.10;65.20;;;;;;5078010;28;20031;-73
2021/04/29 03:30:31;;;;;;;27.92;18.40;;;9.10;65.20;;;;;;5076570;28;20122;-73
2021/04/29 03:32:57;;;;;;;25.33;18.10;;;9.10;65.00;;;;;;5078174;28;20509;-72
2021/04/29 03:35:23;;;;;;;21.88;16.95;;;9.10;65.20;;;;;;5077888;28;20032;-72
2021/04/29 03:37:49;;;;;;;25.08;17.90;;;9.10;65.20;;;;;;5076249;28;20457;-72
2021/04/29 03:40:14;;;;;;;23.38;17.63;;;9.10;65.10;;;;;;5077623;28;20415;-72
2021/04/29 03:42:40;;;;;;;25.48;19.25;;;9.10;65.20;;;;;;5077428;28;20360;-72
2021/04/29 03:45:07;;;;;;;23.15;18.10;;;9.10;65.20;;;;;;5077649;28;20024;-72
2021/04/29 03:47:33;;;;;;;26.05;18.02;;;9.10;65.10;;;;;;5076388;28;20029;-73
2021/04/29 03:49:59;;;;;;;25.30;16.92;;;9.10;65.30;;;;;;5089270;28;20032;-73
2021/04/29 03:52:25;;;;;;;23.13;16.67;;;9.10;65.40;;;;;;5079587;28;20020;-72
2021/04/29 03:54:50;;;;;;;23.05;17.17;;;9.10;65.40;;;;;;5075518;28;20085;-72
2021/04/29 03:57:16;;;;;;;24.30;15.85;;;9.10;65.40;;;;;;5076765;28;20028;-72
2021/04/29 03:59:42;;;;;;;27.02;18.90;;;9.00;65.50;;;;;;5077113;28;20078;-73
2021/04/29 04:02:10;;;;;;;23.48;17.58;;;9.00;65.40;;;;;;5077195;28;20491;-72
2021/04/29 04:04:36;;;;;;;24.63;16.48;;;9.00;65.40;;;;;;5076913;28;20028;-72
2021/04/29 04:07:01;;;;;;;24.80;18.63;;;8.90;65.40;;;;;;5077755;28;20046;-72
2021/04/29 04:09:27;;;;;;;26.85;18.90;;;9.00;65.50;;;;;;5077221;28;20020;-72
2021/04/29 04:11:53;;;;;;;24.13;16.80;;;9.00;65.60;;;;;;5077105;28;20021;-72
2021/04/29 04:14:19;;;;;;;25.77;17.48;;;8.90;65.60;;;;;;5077232;28;20450;-72
2021/04/29 04:16:44;;;;;;;21.98;16.40;;;8.90;65.80;;;;;;5075323;28;20383;-72
2021/04/29 04:19:10;;;;;;;22.33;16.52;;;9.00;65.70;;;;;;5077255;28;20039;-72
2021/04/29 04:21:36;;;;;;;21.00;15.93;;;8.90;65.60;;;;;;5077561;28;20096;-72
2021/04/29 04:24:02;;;;;;;21.38;15.70;;;8.80;65.40;;;;;;5075796;28;20580;-72
2021/04/29 04:26:28;;;;;;;23.13;17.00;;;8.80;65.60;;;;;;5076416;28;20514;-73
2021/04/29 04:28:54;;;;;;;26.90;18.90;;;8.80;65.80;;;;;;5075732;28;20028;-72
2021/04/29 04:31:20;;;;;;;25.52;16.10;;;8.70;65.70;;;;;;5076904;28;20441;-72
2021/04/29 04:33:46;;;;;;;24.73;17.77;;;8.70;66.00;;;;;;5076347;28;20028;-72
2021/04/29 04:36:12;;;;;;;23.63;17.67;;;8.70;65.90;;;;;;5075732;28;20024;-72
2021/04/29 04:38:38;;;;;;;24.25;18.45;;;8.70;65.80;;;;;;5076645;28;20169;-72
2021/04/29 04:41:04;;;;;;;24.20;17.25;;;8.60;65.80;;;;;;5075285;28;20028;-72
2021/04/29 04:43:29;;;;;;;23.70;17.23;;;8.60;65.90;;;;;;5077027;28;20032;-72
2021/04/29 04:45:55;;;;;;;23.52;17.73;;;8.60;66.10;;;;;;5076508;28;20099;-72
2021/04/29 04:48:21;;;;;;;23.55;17.02;;;8.60;66.30;;;;;;5075522;28;20036;-72
2021/04/29 04:50:47;;;;;;;25.30;17.50;;;8.60;66.40;;;;;;5077314;28;20049;-72
2021/04/29 04:53:13;;;;;;;21.75;17.05;;;8.60;66.50;;;;;;5090081;28;20035;-72
2021/04/29 04:55:46;;;;;;;25.48;17.67;;;8.60;66.40;;;;;;5075379;28;20063;-72
2021/04/29 04:58:12;;;;;;;24.80;16.98;;;8.50;66.50;;;;;;5076287;28;20040;-72
2021/04/29 05:00:38;;;;;;;24.67;16.83;;;8.60;66.50;;;;;;5076519;28;20021;-72
2021/04/29 05:03:04;;;;;;;23.50;17.65;;;8.60;66.50;;;;;;5075777;28;20028;-72
2021/04/29 05:05:30;;;;;;;29.50;19.70;;;8.70;66.40;;;;;;5083098;28;20043;-72
2021/04/29 05:08:00;;;;;;;28.30;19.23;;;8.70;66.30;;;;;;5076476;28;20028;-72
2021/04/29 05:10:27;;;;;;;22.25;16.77;;;8.70;66.10;;;;;;5076438;28;20099;-72
2021/04/29 05:12:53;;;;;;;26.05;18.00;;;8.60;65.80;;;;;;5077236;28;20510;-72
2021/04/29 05:15:20;;;;;;;24.13;16.77;;;8.60;66.10;;;;;;5075149;28;20029;-72
2021/04/29 05:17:46;;;;;;;27.35;17.80;;;8.60;66.20;;;;;;5083259;28;20036;-72
2021/04/29 05:20:12;;;;;;;27.52;18.45;;;8.60;66.40;;;;;;5083511;28;20430;-72
2021/04/29 05:22:37;;;;;;;28.13;19.65;;;8.60;66.50;;;;;;5063018;28;20462;-72
2021/04/29 05:25:04;;;;;;;27.55;18.95;;;8.60;66.60;;;;;;5088426;28;20048;-73
2021/04/29 05:27:30;;;;;;;25.88;18.48;;;8.60;66.50;;;;;;5075809;28;20024;-71
2021/04/29 05:29:56;;;;;;;29.02;20.10;;;8.70;66.50;;;;;;5074966;28;20115;-71
2021/04/29 05:32:22;;;;;;;27.40;18.17;;;8.60;66.70;;;;;;5076917;28;20029;-71
2021/04/29 05:34:47;;;;;;;25.77;17.75;;;8.60;66.70;;;;;;5076478;28;20024;-72
2021/04/29 05:37:13;;;;;;;26.60;18.10;;;8.60;66.90;;;;;;5076039;28;20052;-71
2021/04/29 05:39:39;;;;;;;29.27;20.55;;;8.70;67.20;;;;;;5076335;28;20020;-72
2021/04/29 05:42:06;;;;;;;27.27;19.63;;;8.70;67.60;;;;;;5075945;28;20166;-71
2021/04/29 05:44:31;;;;;;;32.40;20.17;;;8.80;67.70;;;;;;5076565;28;20100;-68
2021/04/29 05:46:57;;;;;;;25.52;18.92;;;8.90;67.70;;;;;;5080236;28;20055;-71
2021/04/29 05:49:23;;;;;;;26.40;19.02;;;8.90;67.50;;;;;;5093266;28;20025;-72
2021/04/29 05:51:49;;;;;;;29.15;20.67;;;8.90;67.20;;;;;;5079710;28;20040;-71
2021/04/29 05:54:14;;;;;;;29.48;19.63;;;8.90;67.20;;;;;;5079749;28;20072;-71
2021/04/29 05:56:40;;;;;;;26.83;18.77;;;8.90;67.30;;;;;;5078243;28;20028;-70
2021/04/29 05:59:06;;;;;;;26.30;17.75;;;8.90;67.20;;;;;;5079630;28;20612;-71
2021/04/29 06:01:32;;;;;;;24.15;16.45;;;8.90;67.30;;;;;;5078280;28;20395;-71
2021/04/29 06:03:58;;;;;;;27.27;18.13;;;8.90;67.20;;;;;;5078730;28;20074;-67
2021/04/29 06:06:23;;;;;;;25.02;18.23;;;8.90;67.40;;;;;;5079191;28;20402;-70
2021/04/29 06:08:51;;;;;;;25.83;19.00;;;8.90;67.60;;;;;;5079183;28;20433;-74
2021/04/29 06:11:17;;;;;;;25.08;17.98;;;8.90;67.70;;;;;;5079170;28;20020;-76
2021/04/29 06:13:44;;;;;;;29.63;19.83;;;8.90;67.80;;;;;;5077783;28;20033;-73
2021/04/29 06:16:11;;;;;;;26.48;19.20;;;9.00;67.90;;;;;;5078272;28;20490;-72
2021/04/29 06:18:37;;;;;;;30.00;21.15;;;9.10;68.20;;;;;;5078242;28;20125;-72
2021/04/29 06:21:03;;;;;;;32.33;24.50;;;9.20;68.30;;;;;;5078452;28;20055;-74
2021/04/29 06:23:31;;;;;;;30.38;20.73;;;9.30;68.50;;;;;;5078750;28;20031;-74
2021/04/29 06:25:57;;;;;;;31.20;21.45;;;9.30;68.50;;;;;;5079071;28;20021;-72
2021/04/29 06:28:23;;;;;;;33.20;20.50;;;9.40;68.60;;;;;;5080804;28;20054;-73
2021/04/29 06:30:49;;;;;;;26.75;18.60;;;9.40;68.60;;;;;;5086365;28;20028;-73
2021/04/29 06:33:14;;;;;;;24.73;19.02;;;9.50;68.90;;;;;;5078999;28;20104;-73
2021/04/29 06:35:40;;;;;;;24.08;17.05;;;9.60;68.90;;;;;;5078635;28;20517;-73
2021/04/29 06:38:06;;;;;;;25.05;17.52;;;9.70;69.10;;;;;;5071879;28;20282;-72
2021/04/29 06:40:32;;;;;;;26.33;19.02;;;9.80;69.20;;;;;;5079004;28;20032;-72
2021/04/29 06:42:58;;;;;;;24.30;16.30;;;10.00;69.50;;;;;;5091732;28;20056;-73
2021/04/29 06:45:24;;;;;;;26.38;17.45;;;10.10;69.70;;;;;;5079008;28;20035;-72
2021/04/29 06:47:50;;;;;;;26.17;18.92;;;10.20;69.70;;;;;;5078983;28;20055;-73
2021/04/29 06:50:17;;;;;;;21.92;15.13;;;10.40;69.70;;;;;;5078819;28;20407;-73
2021/04/29 06:52:43;;;;;;;21.25;15.73;;;10.50;69.80;;;;;;5078121;28;20085;-73
2021/04/29 06:55:09;;;;;;;23.35;15.55;;;10.60;69.70;;;;;;5077038;28;20032;-73
2021/04/29 06:57:35;;;;;;;21.13;14.60;;;10.90;70.00;;;;;;5076938;28;20027;-70
2021/04/29 07:00:01;;;;;;;25.00;14.90;;;11.10;70.40;;;;;;5078651;28;20024;-70
2021/04/29 07:02:26;;;;;;;26.23;16.90;;;11.40;70.90;;;;;;5061968;28;20020;-71
2021/04/29 07:04:52;;;;;;;19.83;14.43;;;11.70;70.90;;;;;;5076914;28;20056;-70
2021/04/29 07:07:18;;;;;;;21.63;14.38;;;11.90;70.50;;;;;;5078013;28;20056;-71
2021/04/29 07:09:44;;;;;;;21.55;13.98;;;12.00;69.90;;;;;;5077729;28;20029;-71
2021/04/29 07:12:10;;;;;;;21.33;13.98;;;12.20;69.90;;;;;;5078225;28;20510;-70
2021/04/29 07:14:35;;;;;;;18.20;12.75;;;12.40;70.10;;;;;;5076833;28;20104;-71
2021/04/29 07:17:01;;;;;;;18.00;12.80;;;12.70;70.60;;;;;;5077872;28;20359;-70
2021/04/29 07:19:28;;;;;;;16.92;10.63;;;13.00;70.80;;;;;;5078166;28;20036;-71
2021/04/29 07:21:54;;;;;;;14.15;9.57;;;13.30;70.70;;;;;;5076750;28;20024;-71
2021/04/29 07:24:19;;;;;;;14.88;10.20;;;13.70;70.70;;;;;;5076117;28;20025;-71
2021/04/29 07:26:45;;;;;;;15.52;10.18;;;14.00;70.50;;;;;;5076971;28;20504;-71
2021/04/29 07:29:11;;;;;;;18.02;9.88;;;14.30;69.90;;;;;;5077653;28;20020;-71
2021/04/29 07:31:37;;;;;;;13.90;9.57;;;14.50;69.20;;;;;;5079658;28;20103;-71
2021/04/29 07:34:03;;;;;;;12.93;9.18;;;14.70;68.60;;;;;;5081062;28;20104;-71
2021/04/29 07:36:28;;;;;;;13.85;9.80;;;14.90;68.20;;;;;;5077236;28;20086;-71
2021/04/29 07:38:54;;;;;;;17.02;10.05;;;15.10;67.90;;;;;;5077210;28;20467;-71
2021/04/29 07:41:24;;;;;;;14.85;9.80;;;15.40;67.70;;;;;;5076370;28;20629;-71
2021/04/29 07:43:51;;;;;;;15.65;9.75;;;15.70;67.40;;;;;;5076686;28;20022;-71
2021/04/29 07:46:17;;;;;;;14.93;8.73;;;16.00;67.00;;;;;;5077426;28;20040;-71
2021/04/29 07:48:43;;;;;;;16.15;9.70;;;16.40;66.10;;;;;;5077350;28;20032;-71
2021/04/29 07:51:09;;;;;;;15.25;9.65;;;16.50;64.80;;;;;;5077776;28;20025;-71
2021/04/29 07:53:35;;;;;;;16.63;9.23;;;16.70;64.80;;;;;;5076708;28;20483;-71
2021/04/29 07:56:01;;;;;;;13.40;8.10;;;17.00;64.40;;;;;;5076079;28;20036;-71
2021/04/29 07:58:27;;;;;;;14.35;8.77;;;17.10;63.00;;;;;;5076464;28;20021;-70
2021/04/29 08:00:53;;;;;;;16.20;9.10;;;17.00;61.20;;;;;;5077072;28;20090;-71
2021/04/29 08:03:19;;;;;;;14.50;9.23;;;17.00;61.70;;;;;;5076872;28;20433;-70
2021/04/29 08:05:46;;;;;;;12.70;8.38;;;17.10;60.40;;;;;;5076301;28;20025;-70
2021/04/29 08:08:12;;;;;;;16.60;8.88;;;16.90;59.10;;;;;;5074165;28;20020;-70
2021/04/29 08:10:41;;;;;;;14.52;9.30;;;16.80;59.20;;;;;;5077185;28;20032;-70
2021/04/29 08:13:07;;;;;;;15.52;8.82;;;16.80;59.50;;;;;;5077184;28;20019;-70
2021/04/29 08:15:33;;;;;;;13.50;8.20;;;17.20;60.80;;;;;;5077365;28;20505;-73
2021/04/29 08:17:58;;;;;;;16.25;8.80;;;17.60;61.50;;;;;;5077300;28;20028;-72
2021/04/29 08:20:24;;;;;;;16.73;9.73;;;18.10;61.50;;;;;;5077958;28;20017;-72
2021/04/29 08:22:50;;;;;;;16.80;9.55;;;18.60;57.70;;;;;;5077296;28;20028;-71
2021/04/29 08:25:16;;;;;;;15.75;9.70;;;18.20;55.10;;;;;;5077122;28;20117;-71
2021/04/29 08:27:42;;;;;;;14.38;9.77;;;17.60;52.60;;;;;;5077038;28;20035;-71
2021/04/29 08:30:08;;;;;;;12.63;8.43;;;17.30;53.70;;;;;;5084091;28;20032;-72
2021/04/29 08:32:34;;;;;;;13.35;9.20;;;17.00;53.90;;;;;;5076990;28;20031;-71
2021/04/29 08:35:00;;;;;;;14.90;8.18;;;16.90;53.90;;;;;;5076020;28;20498;-71
2021/04/29 08:37:26;;;;;;;16.15;9.68;;;17.00;55.90;;;;;;5077407;28;20044;-71
2021/04/29 08:39:52;;;;;;;11.82;8.00;;;17.20;55.10;;;;;;5079611;28;20032;-70
2021/04/29 08:42:17;;;;;;;14.98;8.50;;;17.10;54.70;;;;;;5074701;28;20481;-71
2021/04/29 08:44:44;;;;;;;14.48;9.18;;;17.10;54.10;;;;;;5083367;28;20393;-70
2021/04/29 08:47:10;;;;;;;12.07;8.57;;;16.90;53.20;;;;;;5079123;28;20479;-71
2021/04/29 08:49:38;;;;;;;12.77;8.38;;;16.60;52.60;;;;;;5076909;28;20025;-71
2021/04/29 08:52:06;;;;;;;14.43;8.82;;;16.40;52.50;;;;;;5076679;28;20051;-71
2021/04/29 08:54:35;;;;;;;15.73;9.18;;;16.20;52.50;;;;;;5076847;28;20016;-71
2021/04/29 08:57:01;;;;;;;14.43;9.52;;;16.10;52.70;;;;;;5090153;28;20491;-72
2021/04/29 08:59:27;;;;;;;13.07;8.20;;;16.20;53.30;;;;;;5077161;28;20036;-72
2021/04/29 09:01:53;;;;;;;15.65;9.05;;;16.20;53.20;;;;;;5076573;28;20025;-71
2021/04/29 09:04:21;;;;;;;14.65;8.93;;;16.30;54.70;;;;;;5076871;28;20055;-72
2021/04/29 09:06:47;;;;;;;10.05;7.28;;;17.00;57.80;;;;;;5076572;28;20017;-71
2021/04/29 09:09:14;;;;;;;15.80;8.82;;;17.90;58.80;;;;;;5076491;28;20035;-72
2021/04/29 09:11:50;;;;;;;14.40;9.25;;;18.90;57.30;;;;;;5076686;28;20037;-72
2021/04/29 09:14:28;;;;;;;11.98;7.03;;;19.40;57.70;;;;;;5076673;28;20043;-71
2021/04/29 09:16:53;;;;;;;13.50;9.18;;;20.00;57.30;;;;;;5076806;28;20078;-72
2021/04/29 09:19:24;;;;;;;13.20;8.55;;;20.80;54.00;;;;;;5076530;28;20025;-72
2021/04/29 09:21:50;;;;;;;13.07;8.40;;;21.30;54.50;;;;;;5080473;28;20025;-72
2021/04/29 09:24:16;;;;;;;10.40;7.43;;;21.80;51.30;;;;;;5080196;28;20103;-72
2021/04/29 09:26:43;;;;;;;10.75;7.15;;;21.40;48.80;;;;;;5092207;28;20029;-71
2021/04/29 09:29:13;;;;;;;10.73;6.82;;;20.80;43.70;;;;;;5080362;28;20032;-71
2021/04/29 09:31:41;;;;;;;10.75;7.10;;;20.30;47.40;;;;;;5078909;28;20024;-72
2021/04/29 09:34:08;;;;;;;12.35;6.75;;;20.70;49.70;;;;;;5079088;28;20031;-72
2021/04/29 09:36:44;;;;;;;12.73;7.20;;;21.20;47.80;;;;;;5082451;28;20052;-71
2021/04/29 09:39:18;;;;;;;8.07;5.55;;;20.90;44.70;;;;;;5079461;28;20102;-71
2021/04/29 09:41:47;;;;;;;11.07;6.78;;;20.40;44.90;;;;;;5078610;28;20491;-71
2021/04/29 09:44:21;;;;;;;9.82;6.40;;;19.90;44.30;;;;;;5079989;28;20031;-71
2021/04/29 09:46:51;;;;;;;9.07;6.53;;;19.70;45.60;;;;;;5080204;28;20546;-71
2021/04/29 09:49:19;;;;;;;11.38;6.82;;;20.30;48.20;;;;;;5093304;28;20078;-71
2021/04/29 09:51:45;;;;;;;11.73;6.43;;;21.20;48.40;;;;;;5080033;28;20048;-72
2021/04/29 09:54:11;;;;;;;10.77;7.07;;;21.60;48.40;;;;;;5079581;28;20031;-72
2021/04/29 09:56:38;;;;;;;10.85;6.38;;;22.30;47.60;;;;;;5080076;28;20020;-72
2021/04/29 09:59:04;;;;;;;9.90;6.20;;;23.00;47.00;;;;;;5094089;28;20039;-71
2021/04/29 10:01:30;;;;;;;10.23;6.57;;;23.30;46.60;;;;;;5079056;28;20024;-72
2021/04/29 10:03:57;;;;;;;10.48;5.53;;;23.80;44.60;;;;;;5078422;28;20479;-72
2021/04/29 10:06:24;;;;;;;8.77;5.90;;;24.10;45.00;;;;;;5078071;28;20028;-71
2021/04/29 10:08:50;;;;;;;9.93;6.13;;;24.30;43.90;;;;;;5076043;28;20037;-71
2021/04/29 10:11:22;;;;;;;8.93;5.05;;;24.60;42.80;;;;;;5078193;28;20035;-72
2021/04/29 10:13:54;;;;;;;7.95;5.20;;;24.90;42.70;;;;;;5069667;28;20043;-72
2021/04/29 10:16:23;;;;;;;7.15;5.63;;;25.30;39.10;;;;;;5079072;28;20075;-72
2021/04/29 10:18:51;;;;;;;7.45;5.47;;;25.60;41.10;;;;;;5078259;28;20059;-72
2021/04/29 10:21:20;;;;;;;7.03;4.25;;;25.80;40.60;;;;;;5078137;28;20059;-72
2021/04/29 10:23:47;;;;;;;10.50;5.85;;;26.10;40.70;;;;;;5069946;28;20036;-72
2021/04/29 10:26:30;;;;;;;10.07;6.68;;;26.60;37.70;;;;;;5079507;28;20078;-72
2021/04/29 10:28:58;;;;;;;8.88;5.97;;;26.70;34.70;;;;;;5075970;28;20024;-72
2021/04/29 10:31:30;;;;;;;7.85;5.90;;;26.70;33.00;;;;;;5078394;28;20546;-72
2021/04/29 10:33:59;;;;;;;11.48;6.05;;;25.70;33.90;;;;;;5077723;28;20402;-72
2021/04/29 10:36:38;;;;;;;8.85;6.40;;;25.70;32.10;;;;;;5077455;28;20013;-72
2021/04/29 10:39:21;;;;;;;8.68;5.38;;;25.90;30.80;;;;;;5074598;28;20056;-72
2021/04/29 10:42:10;;;;;;;9.70;4.95;;;26.20;36.20;;;;;;5077327;28;20025;-72
2021/04/29 10:44:47;;;;;;;7.72;4.63;;;26.60;36.70;;;;;;5075122;28;20027;-72
2021/04/29 10:47:29;;;;;;;6.88;5.30;;;26.90;34.90;;;;;;5078908;28;20020;-72
2021/04/29 10:50:12;;;;;;;;;;;25.90;32.30;;;;;;5078660;28;20025;-72
2021/04/29 10:52:56;;;;;;;8.20;5.00;;;24.80;31.30;;;;;;5078948;28;19904;-72
2021/04/29 10:55:31;;;;;;;7.82;4.70;;;23.70;31.50;;;;;;5078103;28;20062;-71
2021/04/29 10:57:59;;;;;;;8.07;4.70;;;22.90;31.80;;;;;;5078099;28;20043;-71
2021/04/29 11:00:27;;;;;;;9.27;5.15;;;22.30;32.30;;;;;;5077516;28;20483;-71
2021/04/29 11:03:03;;;;;;;9.63;5.28;;;21.90;32.80;;;;;;5078727;28;20403;-71
2021/04/29 11:05:30;;;;;;;10.02;5.13;;;21.50;33.20;;;;;;5078723;28;20111;-71
2021/04/29 11:08:04;;;;;;;9.77;5.53;;;21.20;33.50;;;;;;5077450;28;20108;-70
2021/04/29 11:10:33;;;;;;;11.30;6.25;;;20.90;34.20;;;;;;5074892;28;20544;-71
2021/04/29 11:13:01;;;;;;;8.73;5.15;;;20.70;34.50;;;;;;5076943;28;20043;-70
2021/04/29 11:15:31;;;;;;;11.75;5.97;;;20.50;34.80;;;;;;5078357;28;20023;-71
2021/04/29 11:18:08;;;;;;;7.72;4.75;;;20.20;35.40;;;;;;5077206;28;20506;-70
2021/04/29 11:20:48;;;;;;;8.65;4.82;;;20.00;35.70;;;;;;5077616;28;20028;-71
2021/04/29 11:23:38;;;;;;;9.60;6.20;;;19.80;36.10;;;;;;5075431;28;20542;-70
2021/04/29 11:26:08;;;;;;;8.38;5.85;;;19.70;36.60;;;;;;5077292;28;20029;-71
2021/04/29 11:28:34;;;;;;;9.90;6.03;;;19.50;36.80;;;;;;5077637;28;20036;-71
2021/04/29 11:31:00;;;;;;;11.60;5.65;;;19.30;37.20;;;;;;5077730;28;20028;-71
2021/04/29 11:33:38;;;;;;;9.10;4.97;;;19.80;40.90;;;;;;5077277;28;20490;-71
2021/04/29 11:36:21;;;;;;;10.70;7.40;;;21.10;42.80;;;;;;5078076;28;20032;-71
2021/04/29 11:39:07;;;;;;;8.60;4.95;;;22.40;43.40;;;;;;5076858;28;20044;-71
2021/04/29 11:41:33;;;;;;;32.25;16.92;;;23.20;42.00;;;;;;5076717;28;20024;-71
2021/04/29 11:44:00;;;;;;;8.77;4.50;;;24.00;41.20;;;;;;5076374;28;20031;-71
2021/04/29 11:46:27;;;;;;;8.98;5.53;;;24.50;40.40;;;;;;5075490;28;20019;-71
2021/04/29 11:49:00;;;;;;;7.50;4.55;;;25.00;38.70;;;;;;5077721;28;20067;-71
2021/04/29 11:51:28;;;;;;;6.90;4.22;;;24.90;37.20;;;;;;5077257;28;20025;-71
2021/04/29 11:53:59;;;;;;;9.35;5.35;;;24.40;35.70;;;;;;5076519;28;20033;-71
2021/04/29 11:56:36;;;;;;;13.57;7.85;;;23.80;34.90;;;;;;5076575;28;20506;-71
2021/04/29 11:59:02;;;;;;;9.40;5.05;;;23.20;34.90;;;;;;5076667;28;20064;-71
2021/04/29 12:01:28;;;;;;;11.40;6.55;;;22.70;35.30;;;;;;5075481;28;20046;-71
2021/04/29 12:03:54;;;;;;;9.45;5.13;;;22.50;35.30;;;;;;5077207;28;20024;-69
2021/04/29 12:06:22;;;;;;;8.48;4.40;;;22.20;35.30;;;;;;5071465;28;20036;-71
2021/04/29 12:08:48;;;;;;;7.90;5.15;;;21.90;35.80;;;;;;5070408;28;20035;-72
2021/04/29 12:11:14;;;;;;;9.07;4.75;;;21.60;36.10;;;;;;5075411;28;20380;-72
2021/04/29 12:13:42;;;;;;;8.00;4.72;;;21.50;36.50;;;;;;5074125;28;20029;-71
2021/04/29 12:16:23;;;;;;;7.90;4.60;;;21.30;36.70;;;;;;5069300;28;20552;-72
2021/04/29 12:18:54;;;;;;;7.03;3.97;;;21.20;37.10;;;;;;5074321;28;20032;-73
2021/04/29 12:21:25;;;;;;;8.00;4.90;;;21.10;37.30;;;;;;5074006;28;20158;-71
2021/04/29 12:24:00;;;;;;;14.82;9.00;;;21.00;37.80;;;;;;5070844;28;20110;-72
2021/04/29 12:26:34;;;;;;;9.07;6.35;;;20.90;37.70;;;;;;5068822;28;20526;-72
2021/04/29 12:29:03;;;;;;;11.30;5.35;;;20.70;38.00;;;;;;5065854;28;20053;-72
2021/04/29 12:31:29;;;;;;;7.93;5.03;;;20.60;38.10;;;;;;5067811;28;20020;-71
2021/04/29 12:34:00;;;;;;;9.75;5.32;;;20.50;38.30;;;;;;5074624;28;20020;-71
2021/04/29 12:36:26;;;;;;;8.90;5.10;;;20.40;38.30;;;;;;5068153;28;20398;-72
2021/04/29 12:38:52;;;;;;;9.57;5.18;;;20.30;38.70;;;;;;5065808;28;20529;-71
2021/04/29 12:41:18;;;;;;;8.25;4.82;;;20.30;39.00;;;;;;5068014;28;20103;-72